Time;durP1;ratioP1;P1;durP2;ratioP2;P2;SDS_P1;SDS_P2;PMS_P1;PMS_P2;Temp;Humidity;BMP_temperature;BMP_pressure;BME280_temperature;BME280_humidity;BME280_pressure;Samples;Min_cycle;Max_cycle;Signal;HPM_P1;HPM_P2
2021/06/18 00:01:36;;;;;;;1.85;0.52;;;21.60;65.90;;;;;;4923804;29;20079;-73
2021/06/18 00:04:04;;;;;;;1.30;0.40;;;21.70;65.50;;;;;;4923585;29;20379;-75
2021/06/18 00:06:32;;;;;;;0.32;0.22;;;21.90;64.70;;;;;;4927852;29;20020;-74
2021/06/18 00:09:01;;;;;;;0.47;0.30;;;21.70;63.90;;;;;;4925604;29;20028;-76
2021/06/18 00:11:28;;;;;;;0.15;0.13;;;21.80;63.60;;;;;;4931733;29;20078;-74
2021/06/18 00:13:55;;;;;;;0.40;0.13;;;22.20;61.90;;;;;;4929997;29;20439;-73
2021/06/18 00:16:23;;;;;;;0.20;0.10;;;22.10;61.20;;;;;;4926860;29;20050;-73
2021/06/18 00:18:50;;;;;;;0.10;0.10;;;21.60;62.20;;;;;;4929073;29;20024;-75
2021/06/18 00:21:18;;;;;;;0.43;0.20;;;21.60;61.30;;;;;;4928742;29;20484;-74
2021/06/18 00:23:45;;;;;;;1.05;0.20;;;21.30;64.00;;;;;;4923415;29;20515;-72
2021/06/18 00:26:12;;;;;;;1.38;0.10;;;21.40;62.30;;;;;;4926747;29;20521;-72
2021/06/18 00:28:42;;;;;;;0.40;0.10;;;21.90;61.90;;;;;;4926478;29;20048;-71
2021/06/18 00:31:10;;;;;;;0.40;0.10;;;22.70;60.60;;;;;;4927095;29;20055;-73
2021/06/18 00:33:37;;;;;;;0.20;0.20;;;23.10;59.50;;;;;;4926564;29;20040;-72
2021/06/18 00:36:05;;;;;;;0.63;0.10;;;23.70;59.10;;;;;;4925611;29;20091;-71
2021/06/18 00:38:33;;;;;;;0.20;0.10;;;23.70;55.60;;;;;;4925507;29;20039;-73
2021/06/18 00:41:01;;;;;;;0.38;0.20;;;23.50;56.10;;;;;;4942709;29;20046;-71
2021/06/18 00:43:28;;;;;;;1.98;0.10;;;23.60;55.80;;;;;;4923234;29;20045;-75
2021/06/18 00:45:55;;;;;;;0.10;0.10;;;23.50;56.00;;;;;;4926882;29;20116;-75
2021/06/18 00:48:25;;;;;;;0.20;0.20;;;23.90;55.20;;;;;;4924546;29;20044;-74
2021/06/18 00:50:52;;;;;;;0.20;0.10;;;24.40;54.40;;;;;;4929074;29;20508;-75
2021/06/18 00:53:20;;;;;;;0.20;0.10;;;24.40;53.50;;;;;;4927005;29;20079;-75
2021/06/18 00:55:49;;;;;;;0.10;0.10;;;24.60;53.70;;;;;;4926914;29;20078;-76
2021/06/18 00:58:17;;;;;;;1.02;0.10;;;24.90;52.70;;;;;;4926135;28;20503;-72
2021/06/18 01:00:45;;;;;;;0.10;0.10;;;24.70;52.20;;;;;;4929137;29;20048;-74
2021/06/18 01:03:13;;;;;;;0.00;0.00;;;25.20;52.50;;;;;;4925757;29;20028;-70
2021/06/18 01:05:44;;;;;;;0.47;0.10;;;25.50;49.90;;;;;;4925580;29;20102;-74
2021/06/18 01:08:23;;;;;;;0.22;0.22;;;25.70;50.60;;;;;;4922320;29;21006;-71
2021/06/18 01:10:55;;;;;;;0.17;0.10;;;25.40;49.90;;;;;;4924275;29;20078;-71
2021/06/18 01:13:48;;;;;;;0.15;0.10;;;25.70;50.00;;;;;;4925239;29;20036;-71
2021/06/18 01:16:34;;;;;;;0.00;0.00;;;25.50;48.00;;;;;;4926192;29;20038;-70
2021/06/18 01:19:00;;;;;;;;;;;24.90;49.60;;;;;;4923617;29;20575;-72
2021/06/18 01:21:34;;;;;;;0.10;0.10;;;25.00;52.00;;;;;;4927710;29;21014;-72
2021/06/18 01:24:04;;;;;;;0.00;0.00;;;24.80;50.90;;;;;;4926310;29;20040;-71
2021/06/18 01:26:58;;;;;;;0.00;0.00;;;25.10;49.80;;;;;;4927518;29;20027;-72
2021/06/18 01:29:28;;;;;;;0.00;0.00;;;25.20;49.10;;;;;;4924498;29;20032;-71
2021/06/18 01:31:58;;;;;;;0.03;0.00;;;24.10;50.50;;;;;;4925868;29;20031;-72
2021/06/18 01:34:32;;;;;;;0.20;0.00;;;23.10;53.80;;;;;;4926235;29;20032;-73
2021/06/18 01:37:08;;;;;;;0.10;0.10;;;22.60;54.50;;;;;;4928044;29;20032;-72
2021/06/18 01:39:36;;;;;;;0.77;0.00;;;22.70;56.60;;;;;;4926220;29;20112;-72
2021/06/18 01:42:05;;;;;;;0.10;0.00;;;22.50;55.70;;;;;;4927016;29;20032;-71
2021/06/18 01:44:35;;;;;;;0.00;0.00;;;21.60;55.00;;;;;;4923801;29;20102;-71
2021/06/18 01:47:07;;;;;;;0.25;0.10;;;20.50;60.60;;;;;;4926068;29;21054;-69
2021/06/18 01:49:37;;;;;;;1.25;0.00;;;20.20;59.70;;;;;;4926422;29;20040;-70
2021/06/18 01:52:07;;;;;;;0.00;0.00;;;20.60;62.00;;;;;;4926403;29;20055;-70
2021/06/18 01:54:36;;;;;;;0.20;0.10;;;20.60;62.00;;;;;;4926406;29;20594;-71
2021/06/18 01:57:06;;;;;;;0.08;0.08;;;21.90;63.70;;;;;;4926220;29;20459;-70
2021/06/18 01:59:36;;;;;;;0.00;0.00;;;22.70;59.20;;;;;;4925200;29;20028;-71
2021/06/18 02:02:06;;;;;;;1.20;0.10;;;23.10;58.90;;;;;;4926582;29;20080;-71
2021/06/18 02:04:35;;;;;;;0.13;0.10;;;23.20;58.80;;;;;;4925036;29;20028;-70
2021/06/18 02:07:04;;;;;;;0.20;0.20;;;24.00;56.90;;;;;;4922047;29;20074;-71
2021/06/18 02:09:34;;;;;;;0.20;0.20;;;25.10;55.60;;;;;;4925765;29;20656;-71
2021/06/18 02:12:02;;;;;;;0.10;0.08;;;26.10;54.10;;;;;;4924283;29;20059;-74
2021/06/18 02:14:32;;;;;;;0.10;0.10;;;26.50;53.50;;;;;;4926073;29;20054;-71
2021/06/18 02:17:04;;;;;;;0.30;0.10;;;26.70;50.10;;;;;;4926724;29;20106;-71
2021/06/18 02:19:34;;;;;;;0.00;0.00;;;26.90;50.70;;;;;;4927100;29;20027;-71
2021/06/18 02:22:05;;;;;;;0.10;0.10;;;26.70;50.90;;;;;;4923412;29;20958;-71
2021/06/18 02:24:34;;;;;;;0.85;0.10;;;26.80;53.20;;;;;;4924505;29;20036;-72
2021/06/18 02:27:03;;;;;;;1.10;0.20;;;26.90;52.40;;;;;;4923956;29;20374;-72
2021/06/18 02:29:31;;;;;;;0.10;0.03;;;26.90;49.60;;;;;;4925777;29;20034;-71
2021/06/18 02:32:02;;;;;;;0.50;0.20;;;26.40;49.20;;;;;;4925021;29;20158;-71
2021/06/18 02:34:30;;;;;;;0.00;0.00;;;25.20;52.10;;;;;;4923762;29;20027;-71
2021/06/18 02:36:58;;;;;;;0.30;0.10;;;24.40;55.10;;;;;;4924632;29;20051;-71
2021/06/18 02:39:25;;;;;;;0.20;0.20;;;23.40;54.80;;;;;;4922839;29;20042;-70
2021/06/18 02:41:52;;;;;;;0.28;0.10;;;22.70;56.80;;;;;;4924690;29;20083;-70
2021/06/18 02:44:20;;;;;;;0.10;0.00;;;22.00;59.60;;;;;;4907352;29;20045;-71
2021/06/18 02:47:05;;;;;;;0.43;0.10;;;21.40;61.10;;;;;;4925269;29;20134;-70
2021/06/18 02:49:48;;;;;;;0.38;0.10;;;21.00;63.20;;;;;;4922282;29;20027;-70
2021/06/18 02:52:25;;;;;;;1.17;0.10;;;20.60;63.30;;;;;;4926775;29;20087;-70
2021/06/18 02:55:10;;;;;;;0.77;0.20;;;20.20;63.70;;;;;;4924543;29;20036;-71
2021/06/18 02:57:49;;;;;;;0.03;0.00;;;20.00;64.40;;;;;;4922805;29;20039;-71
2021/06/18 03:00:17;;;;;;;0.03;0.00;;;20.00;65.00;;;;;;4923958;29;20114;-72
2021/06/18 03:02:51;;;;;;;1.85;0.05;;;20.10;65.40;;;;;;4922698;29;20558;-71
2021/06/18 03:05:22;;;;;;;0.03;0.00;;;19.90;65.10;;;;;;4924504;29;20080;-71
2021/06/18 03:08:10;;;;;;;0.10;0.00;;;19.60;63.40;;;;;;4923406;29;21066;-71
2021/06/18 03:10:41;;;;;;;0.15;0.00;;;19.50;64.70;;;;;;4909033;29;20038;-71
2021/06/18 03:13:30;;;;;;;0.15;0.10;;;19.40;65.60;;;;;;4923222;29;20044;-71
2021/06/18 03:15:58;;;;;;;0.08;0.00;;;19.80;64.20;;;;;;4922518;29;20063;-71
2021/06/18 03:18:27;;;;;;;0.95;0.10;;;19.90;64.00;;;;;;4922914;29;20032;-71
2021/06/18 03:21:01;;;;;;;0.60;0.20;;;19.70;64.10;;;;;;4920694;29;21731;-71
2021/06/18 03:23:32;;;;;;;3.80;1.83;;;20.80;63.00;;;;;;4924764;29;20036;-71
2021/06/18 03:26:02;;;;;;;5.80;2.38;;;21.50;60.70;;;;;;4923727;29;20115;-71
2021/06/18 03:28:31;;;;;;;0.47;0.28;;;21.70;60.90;;;;;;4924167;29;20067;-71
2021/06/18 03:31:01;;;;;;;1.77;1.17;;;21.60;59.50;;;;;;4925532;29;20047;-72
2021/06/18 03:33:29;;;;;;;0.50;0.30;;;21.30;60.70;;;;;;4920334;29;20499;-72
2021/06/18 03:35:57;;;;;;;0.13;0.08;;;21.40;60.00;;;;;;4924738;29;20126;-72
2021/06/18 03:38:25;;;;;;;0.50;0.20;;;21.30;60.30;;;;;;4922440;29;20035;-73
2021/06/18 03:40:53;;;;;;;0.20;0.10;;;20.70;60.70;;;;;;4925763;29;20031;-72
2021/06/18 03:43:21;;;;;;;0.57;0.20;;;20.40;61.00;;;;;;4923803;29;20031;-70
2021/06/18 03:45:53;;;;;;;0.13;0.08;;;20.10;60.20;;;;;;4924011;29;20110;-72
2021/06/18 03:48:22;;;;;;;1.55;0.08;;;19.90;60.80;;;;;;4921729;29;20446;-72
2021/06/18 03:50:50;;;;;;;0.00;0.00;;;19.70;61.40;;;;;;4922055;29;20028;-72
2021/06/18 03:53:18;;;;;;;0.13;0.00;;;19.50;61.10;;;;;;4923828;29;20079;-73
2021/06/18 03:55:49;;;;;;;0.00;0.00;;;19.50;61.30;;;;;;4925194;29;20044;-72
2021/06/18 03:58:21;;;;;;;0.10;0.00;;;19.30;61.30;;;;;;4923150;29;20024;-73
2021/06/18 04:00:51;;;;;;;0.00;0.00;;;19.30;61.30;;;;;;4917116;29;20039;-71
2021/06/18 04:03:21;;;;;;;0.00;0.00;;;19.20;61.30;;;;;;4923076;29;20087;-70
2021/06/18 04:05:50;;;;;;;0.00;0.00;;;19.10;62.10;;;;;;4923296;29;20047;-71
2021/06/18 04:08:20;;;;;;;0.10;0.00;;;19.10;63.70;;;;;;4924812;29;20848;-71
2021/06/18 04:10:48;;;;;;;0.52;0.15;;;19.00;62.10;;;;;;4908325;29;20027;-73
2021/06/18 04:13:17;;;;;;;0.85;0.00;;;18.90;62.70;;;;;;4926158;29;20038;-72
2021/06/18 04:15:46;;;;;;;0.00;0.00;;;18.90;62.20;;;;;;4925446;29;20399;-72
2021/06/18 04:18:17;;;;;;;0.00;0.00;;;18.80;63.40;;;;;;4920242;29;20031;-72
2021/06/18 04:20:45;;;;;;;0.10;0.00;;;18.80;62.40;;;;;;4917577;29;20032;-72
2021/06/18 04:23:12;;;;;;;0.00;0.00;;;18.70;63.30;;;;;;4923372;29;20517;-72
2021/06/18 04:25:40;;;;;;;0.00;0.00;;;18.60;64.40;;;;;;4922215;29;20028;-75
2021/06/18 04:28:08;;;;;;;0.15;0.00;;;18.50;64.70;;;;;;4924114;29;20040;-75
2021/06/18 04:30:35;;;;;;;0.00;0.00;;;18.50;65.10;;;;;;4908115;29;20562;-74
2021/06/18 04:33:04;;;;;;;0.10;0.00;;;18.30;65.90;;;;;;4921955;29;20431;-74
2021/06/18 04:35:31;;;;;;;0.00;0.00;;;18.30;65.40;;;;;;4924379;29;20391;-73
2021/06/18 04:38:00;;;;;;;0.00;0.00;;;18.30;65.80;;;;;;4920765;29;20115;-73
2021/06/18 04:40:27;;;;;;;2.90;0.10;;;18.30;65.90;;;;;;4920538;29;20024;-74
2021/06/18 04:42:55;;;;;;;0.00;0.00;;;18.30;65.50;;;;;;4922467;29;20034;-75
2021/06/18 04:45:22;;;;;;;0.10;0.00;;;18.30;65.80;;;;;;4923296;29;20028;-74
2021/06/18 04:47:49;;;;;;;0.20;0.10;;;18.30;66.20;;;;;;4929388;29;20035;-74
2021/06/18 04:50:17;;;;;;;0.00;0.00;;;18.30;66.70;;;;;;4923477;29;20020;-74
2021/06/18 04:52:46;;;;;;;1.25;0.10;;;18.30;66.90;;;;;;4925011;29;20043;-74
2021/06/18 04:55:17;;;;;;;0.10;0.00;;;18.40;66.90;;;;;;4927732;29;20115;-73
2021/06/18 04:57:46;;;;;;;0.00;0.00;;;18.50;66.80;;;;;;4918850;29;20032;-73
2021/06/18 05:00:15;;;;;;;0.10;0.00;;;18.50;66.30;;;;;;4927431;29;20032;-74
2021/06/18 05:02:43;;;;;;;0.00;0.00;;;18.50;65.90;;;;;;4924918;29;20035;-74
2021/06/18 05:05:11;;;;;;;0.20;0.00;;;18.50;65.70;;;;;;4926649;29;20032;-74
2021/06/18 05:07:38;;;;;;;0.00;0.00;;;18.50;66.30;;;;;;4928218;29;20036;-75
2021/06/18 05:10:07;;;;;;;0.00;0.00;;;18.40;66.00;;;;;;4926593;29;20119;-75
2021/06/18 05:12:35;;;;;;;9.07;4.53;;;18.30;66.20;;;;;;4925797;29;20036;-75
2021/06/18 05:15:03;;;;;;;1.85;1.23;;;18.10;66.80;;;;;;4930070;29;20071;-74
2021/06/18 05:17:31;;;;;;;1.10;0.85;;;18.00;67.00;;;;;;4925657;29;20027;-72
2021/06/18 05:19:58;;;;;;;0.45;0.45;;;17.90;67.80;;;;;;4928535;29;20024;-74
2021/06/18 05:22:25;;;;;;;0.30;0.25;;;17.90;68.30;;;;;;4928883;29;20399;-75
2021/06/18 05:24:53;;;;;;;0.60;0.25;;;17.90;68.70;;;;;;4926620;29;20035;-75
2021/06/18 05:27:20;;;;;;;0.10;0.10;;;17.80;68.50;;;;;;4926036;29;20503;-72
2021/06/18 05:29:48;;;;;;;0.10;0.10;;;17.80;68.70;;;;;;4922602;29;20044;-72
2021/06/18 05:32:17;;;;;;;0.10;0.10;;;17.80;68.70;;;;;;4926478;29;20031;-75
2021/06/18 05:34:45;;;;;;;0.15;0.05;;;17.80;68.20;;;;;;4926326;29;20091;-73
2021/06/18 05:37:13;;;;;;;0.38;0.05;;;17.70;69.10;;;;;;4927824;29;20067;-74
2021/06/18 05:39:42;;;;;;;0.08;0.08;;;17.70;68.70;;;;;;4926357;29;20368;-72
2021/06/18 05:42:11;;;;;;;0.00;0.00;;;17.60;68.70;;;;;;4925709;29;20388;-72
2021/06/18 05:44:39;;;;;;;0.85;0.10;;;17.50;69.80;;;;;;4931265;29;20031;-72
2021/06/18 05:47:06;;;;;;;0.88;0.20;;;17.50;69.10;;;;;;4928800;29;20067;-71
2021/06/18 05:49:34;;;;;;;0.10;0.10;;;17.50;70.20;;;;;;4930915;29;20119;-72
2021/06/18 05:52:01;;;;;;;0.10;0.10;;;17.40;69.70;;;;;;4925935;29;20059;-72
2021/06/18 05:54:28;;;;;;;0.25;0.20;;;17.30;70.00;;;;;;4927064;29;20436;-72
2021/06/18 05:56:56;;;;;;;0.10;0.10;;;17.40;70.40;;;;;;4926921;29;20482;-72
2021/06/18 05:59:24;;;;;;;0.13;0.10;;;17.30;69.90;;;;;;4928556;29;20092;-73
2021/06/18 06:01:51;;;;;;;0.55;0.20;;;17.30;70.20;;;;;;4925739;29;20052;-73
2021/06/18 06:04:19;;;;;;;0.75;0.25;;;17.20;70.70;;;;;;4926130;29;20186;-73
2021/06/18 06:06:46;;;;;;;0.10;0.10;;;17.10;71.30;;;;;;4925044;29;20020;-73
2021/06/18 06:09:13;;;;;;;1.02;0.10;;;17.10;71.50;;;;;;4926461;29;20389;-73
2021/06/18 06:11:41;;;;;;;0.10;0.10;;;17.00;71.30;;;;;;4927616;29;20482;-73
2021/06/18 06:14:15;;;;;;;0.10;0.10;;;16.90;71.40;;;;;;4928010;29;20082;-73
2021/06/18 06:16:45;;;;;;;0.05;0.05;;;16.80;71.40;;;;;;4928809;29;20038;-73
2021/06/18 06:19:13;;;;;;;0.10;0.10;;;16.70;72.10;;;;;;4922825;29;20031;-74
2021/06/18 06:21:41;;;;;;;0.38;0.17;;;16.60;72.20;;;;;;4928504;29;20036;-72
2021/06/18 06:24:10;;;;;;;0.08;0.08;;;16.60;72.10;;;;;;4923742;29;20390;-72
2021/06/18 06:26:37;;;;;;;0.20;0.10;;;16.50;72.20;;;;;;4922521;29;20024;-73
2021/06/18 06:29:05;;;;;;;0.43;0.30;;;16.40;73.00;;;;;;4923234;29;20156;-74
2021/06/18 06:31:32;;;;;;;1.48;0.20;;;16.40;73.10;;;;;;4921267;29;20483;-73
2021/06/18 06:34:00;;;;;;;0.68;0.35;;;16.30;72.70;;;;;;4925662;29;20039;-74
2021/06/18 06:36:27;;;;;;;0.30;0.20;;;16.10;73.10;;;;;;4924715;29;20032;-73
2021/06/18 06:38:56;;;;;;;0.20;0.10;;;16.10;73.50;;;;;;4930970;29;20038;-73
2021/06/18 06:41:23;;;;;;;0.40;0.20;;;16.10;74.00;;;;;;4927533;29;20136;-72
2021/06/18 06:43:50;;;;;;;1.40;0.17;;;16.00;73.90;;;;;;4928305;29;20040;-74
2021/06/18 06:46:23;;;;;;;1.17;0.50;;;16.00;74.30;;;;;;4927895;29;20031;-74
2021/06/18 06:48:51;;;;;;;1.33;0.60;;;15.90;74.20;;;;;;4924931;29;20043;-73
2021/06/18 06:51:19;;;;;;;0.82;0.50;;;16.00;73.80;;;;;;4929754;29;20030;-74
2021/06/18 06:53:46;;;;;;;0.80;0.50;;;15.90;73.80;;;;;;4908246;29;20046;-74
2021/06/18 06:56:15;;;;;;;0.65;0.30;;;15.90;73.70;;;;;;4926165;29;20031;-73
2021/06/18 06:58:42;;;;;;;0.52;0.43;;;15.90;73.70;;;;;;4926256;29;20031;-72
2021/06/18 07:01:11;;;;;;;0.40;0.40;;;15.90;73.40;;;;;;4925156;29;20075;-72
2021/06/18 07:03:39;;;;;;;0.80;0.50;;;15.80;73.70;;;;;;4925794;29;20095;-71
2021/06/18 07:06:08;;;;;;;0.40;0.20;;;15.80;73.40;;;;;;4925610;29;20115;-74
2021/06/18 07:08:35;;;;;;;0.90;0.40;;;15.70;73.00;;;;;;4926401;29;20050;-71
2021/06/18 07:11:03;;;;;;;0.52;0.28;;;15.60;72.90;;;;;;4924599;29;20159;-74
2021/06/18 07:13:31;;;;;;;0.77;0.40;;;15.60;73.60;;;;;;4927160;29;20036;-73
2021/06/18 07:15:59;;;;;;;0.15;0.10;;;15.50;73.40;;;;;;4922281;29;20547;-74
2021/06/18 07:18:27;;;;;;;1.15;0.82;;;15.60;73.10;;;;;;4929011;29;20035;-71
2021/06/18 07:20:55;;;;;;;2.45;0.70;;;15.50;73.60;;;;;;4928519;29;20471;-76
2021/06/18 07:23:22;;;;;;;3.03;1.63;;;15.50;73.70;;;;;;4928453;29;20501;-74
2021/06/18 07:25:50;;;;;;;2.55;1.45;;;15.50;73.80;;;;;;4923263;29;20042;-72
2021/06/18 07:28:17;;;;;;;4.15;2.40;;;15.40;73.70;;;;;;4922139;29;20038;-72
2021/06/18 07:30:45;;;;;;;4.22;1.77;;;15.40;74.30;;;;;;4924591;29;20114;-71
2021/06/18 07:33:12;;;;;;;2.10;1.10;;;15.40;74.20;;;;;;4924146;29;20104;-73
2021/06/18 07:35:39;;;;;;;2.17;1.45;;;15.30;74.10;;;;;;4924791;29;20039;-73
2021/06/18 07:38:07;;;;;;;2.15;1.10;;;15.30;74.50;;;;;;4905212;29;20054;-72
2021/06/18 07:40:35;;;;;;;4.63;3.10;;;15.20;74.60;;;;;;4927111;29;20040;-73
2021/06/18 07:43:03;;;;;;;7.05;5.40;;;15.20;74.90;;;;;;4921013;29;20031;-75
2021/06/18 07:45:31;;;;;;;3.13;1.73;;;15.10;75.10;;;;;;4923149;29;20387;-72
2021/06/18 07:47:58;;;;;;;1.35;0.60;;;15.20;75.10;;;;;;4923113;29;20035;-72
2021/06/18 07:50:26;;;;;;;2.42;0.73;;;15.20;75.20;;;;;;4922581;29;20056;-72
2021/06/18 07:52:54;;;;;;;1.95;1.50;;;15.20;75.30;;;;;;4917284;29;20031;-75
2021/06/18 07:55:24;;;;;;;1.88;1.30;;;15.20;75.40;;;;;;4920784;29;20038;-75
2021/06/18 07:57:52;;;;;;;3.10;2.10;;;15.20;75.00;;;;;;4922595;29;20094;-75
2021/06/18 08:00:21;;;;;;;1.67;1.23;;;15.20;75.20;;;;;;4924863;29;20086;-73
2021/06/18 08:02:48;;;;;;;2.45;1.42;;;15.10;75.10;;;;;;4920228;29;20039;-73
2021/06/18 08:05:17;;;;;;;4.85;3.60;;;15.10;75.20;;;;;;4922060;29;20028;-71
2021/06/18 08:07:47;;;;;;;2.22;1.65;;;15.10;75.50;;;;;;4923191;29;20024;-74
2021/06/18 08:10:16;;;;;;;0.98;0.82;;;15.00;75.50;;;;;;4920994;29;20082;-74
2021/06/18 08:12:46;;;;;;;2.97;1.55;;;14.90;75.70;;;;;;4922490;29;20031;-72
2021/06/18 08:15:14;;;;;;;1.75;1.10;;;14.90;76.40;;;;;;4923179;29;20031;-72
2021/06/18 08:17:42;;;;;;;0.70;0.55;;;14.80;76.40;;;;;;4922310;29;20098;-70
2021/06/18 08:20:11;;;;;;;0.45;0.30;;;14.80;76.70;;;;;;4921075;29;20017;-69
2021/06/18 08:22:39;;;;;;;0.30;0.30;;;14.80;76.60;;;;;;4919189;29;20040;-72
2021/06/18 08:25:08;;;;;;;0.73;0.30;;;14.80;77.30;;;;;;4921503;29;20028;-73
2021/06/18 08:27:36;;;;;;;0.60;0.40;;;14.80;77.00;;;;;;4924395;29;20036;-72
2021/06/18 08:30:04;;;;;;;0.73;0.40;;;14.80;77.10;;;;;;4922996;29;20034;-74
2021/06/18 08:32:32;;;;;;;0.47;0.20;;;14.80;77.40;;;;;;4923632;29;20490;-73
2021/06/18 08:34:59;;;;;;;4.43;3.10;;;14.80;77.30;;;;;;4926518;29;20050;-74
2021/06/18 08:37:27;;;;;;;14.70;8.27;;;14.70;77.70;;;;;;4926002;29;20054;-74
2021/06/18 08:39:54;;;;;;;2.95;1.23;;;14.70;78.20;;;;;;4927796;29;20032;-75
2021/06/18 08:42:21;;;;;;;1.42;1.23;;;14.70;78.60;;;;;;4926107;29;20040;-72
2021/06/18 08:44:49;;;;;;;1.08;0.60;;;14.60;81.00;;;;;;4928257;29;20039;-75
2021/06/18 08:47:16;;;;;;;0.50;0.50;;;14.50;83.00;;;;;;4926303;29;20028;-71
2021/06/18 08:49:44;;;;;;;0.55;0.50;;;14.40;83.70;;;;;;4928772;29;20031;-71
2021/06/18 08:52:11;;;;;;;0.70;0.70;;;14.20;86.30;;;;;;4926455;29;20042;-75
2021/06/18 08:54:42;;;;;;;0.40;0.40;;;14.10;88.10;;;;;;4929333;29;20027;-75
2021/06/18 08:57:18;;;;;;;0.50;0.50;;;13.90;89.30;;;;;;4928127;29;20038;-76
2021/06/18 08:59:47;;;;;;;1.42;0.50;;;13.80;89.90;;;;;;4925896;29;21003;-71
2021/06/18 09:02:15;;;;;;;0.40;0.40;;;13.80;90.30;;;;;;4869325;29;1715106;-75
2021/06/18 09:05:09;;;;;;;2.67;0.50;;;13.70;90.30;;;;;;4929924;29;20040;-73
2021/06/18 09:07:50;;;;;;;0.22;0.20;;;13.60;91.90;;;;;;4926272;29;20114;-75
2021/06/18 09:10:40;;;;;;;0.60;0.60;;;13.50;92.00;;;;;;4925042;29;20031;-75
2021/06/18 09:13:12;;;;;;;1.02;0.40;;;13.30;93.20;;;;;;4926252;29;20108;-72
2021/06/18 09:15:42;;;;;;;0.63;0.30;;;13.30;94.30;;;;;;4926781;29;20023;-70
2021/06/18 09:18:28;;;;;;;0.15;0.15;;;13.20;95.40;;;;;;4924498;29;20038;-72
2021/06/18 09:21:17;;;;;;;0.57;0.30;;;13.00;95.80;;;;;;4925669;29;20028;-69
2021/06/18 09:23:53;;;;;;;0.73;0.45;;;13.00;96.30;;;;;;4925191;29;20032;-70
2021/06/18 09:26:35;;;;;;;0.57;0.30;;;12.90;96.80;;;;;;4924727;29;20034;-70
2021/06/18 09:29:06;;;;;;;0.25;0.22;;;12.80;96.50;;;;;;4925587;29;20082;-71
2021/06/18 09:31:46;;;;;;;0.10;0.10;;;12.80;96.50;;;;;;4926465;29;20020;-70
2021/06/18 09:34:15;;;;;;;0.65;0.22;;;12.70;96.90;;;;;;4923485;29;20090;-73
2021/06/18 09:36:43;;;;;;;0.20;0.20;;;12.60;97.10;;;;;;4925500;29;20032;-70
2021/06/18 09:39:17;;;;;;;1.80;0.10;;;12.60;97.10;;;;;;4925626;29;20024;-74
2021/06/18 09:41:53;;;;;;;0.20;0.20;;;12.60;97.30;;;;;;4921976;29;20058;-74
2021/06/18 09:44:24;;;;;;;0.00;0.00;;;12.60;97.40;;;;;;4922173;29;20504;-71
2021/06/18 09:46:54;;;;;;;4.25;0.30;;;12.60;97.20;;;;;;4925400;29;20538;-73
2021/06/18 09:49:33;;;;;;;0.10;0.10;;;12.60;97.80;;;;;;4926693;29;20056;-71
2021/06/18 09:52:04;;;;;;;0.40;0.30;;;12.60;98.00;;;;;;4921862;29;20406;-74
2021/06/18 09:54:34;;;;;;;1.23;0.30;;;12.60;98.20;;;;;;4924390;29;20115;-71
2021/06/18 09:57:12;;;;;;;0.22;0.10;;;12.50;98.10;;;;;;4925828;29;20039;-72
2021/06/18 09:59:49;;;;;;;0.50;0.30;;;12.60;97.50;;;;;;4929391;29;20039;-73
2021/06/18 10:02:18;;;;;;;0.38;0.22;;;12.60;97.70;;;;;;4925908;29;20099;-74
2021/06/18 10:04:51;;;;;;;0.20;0.20;;;12.60;98.20;;;;;;4907335;29;22219;-71
2021/06/18 10:07:26;;;;;;;1.88;0.32;;;12.50;98.40;;;;;;4926729;29;20040;-72
2021/06/18 10:09:55;;;;;;;1.75;0.30;;;12.60;98.20;;;;;;4925437;29;20546;-72
2021/06/18 10:12:23;;;;;;;0.60;0.38;;;12.50;98.20;;;;;;4922218;29;20031;-73
2021/06/18 10:14:52;;;;;;;1.30;1.05;;;12.40;98.60;;;;;;4924241;29;20030;-73
2021/06/18 10:17:19;;;;;;;0.90;0.55;;;12.40;98.90;;;;;;4925974;29;20030;-70
2021/06/18 10:19:47;;;;;;;1.20;0.40;;;12.30;99.00;;;;;;4925256;29;20171;-74
2021/06/18 10:22:19;;;;;;;0.90;0.47;;;12.30;99.50;;;;;;4924927;29;20438;-75
2021/06/18 10:25:00;;;;;;;1.60;0.55;;;12.30;99.40;;;;;;4925225;29;20036;-72
2021/06/18 10:27:41;;;;;;;0.70;0.30;;;12.30;99.50;;;;;;4925175;29;20039;-74
2021/06/18 10:30:26;;;;;;;1.52;0.60;;;12.30;99.90;;;;;;4931095;29;20035;-73
2021/06/18 10:32:56;;;;;;;4.03;1.07;;;12.30;99.90;;;;;;4924149;29;20024;-72
2021/06/18 10:35:45;;;;;;;1.50;0.75;;;12.20;99.90;;;;;;4926984;29;20031;-72
2021/06/18 10:38:40;;;;;;;1.75;1.15;;;12.20;99.90;;;;;;4938983;28;20039;-71
2021/06/18 10:41:19;;;;;;;1.95;0.75;;;12.10;99.90;;;;;;4922939;29;20032;-75
2021/06/18 10:43:56;;;;;;;2.08;0.82;;;12.10;99.90;;;;;;4924262;29;20031;-72
2021/06/18 10:46:39;;;;;;;2.15;0.80;;;12.00;99.90;;;;;;4923660;29;20050;-72
2021/06/18 10:49:13;;;;;;;1.05;0.80;;;11.90;99.90;;;;;;4925365;29;20044;-70
2021/06/18 10:51:42;;;;;;;1.45;0.90;;;11.80;99.90;;;;;;4923116;29;20222;-73
2021/06/18 10:54:26;;;;;;;0.90;0.50;;;11.80;99.90;;;;;;4926504;29;20587;-76
2021/06/18 10:56:58;;;;;;;1.20;1.00;;;11.90;99.90;;;;;;4923932;29;20051;-71
2021/06/18 10:59:43;;;;;;;1.75;1.10;;;11.90;99.90;;;;;;4910109;29;20095;-70
2021/06/18 11:02:26;;;;;;;2.65;1.45;;;12.00;99.90;;;;;;4922207;29;20351;-70
2021/06/18 11:05:07;;;;;;;2.78;1.52;;;12.00;99.90;;;;;;4925611;29;20020;-73
2021/06/18 11:07:39;;;;;;;1.95;1.20;;;12.10;99.90;;;;;;4926306;29;20036;-73
2021/06/18 11:10:34;;;;;;;2.50;1.25;;;12.10;99.90;;;;;;4926966;29;20020;-70
2021/06/18 11:13:04;;;;;;;2.67;1.73;;;12.00;99.90;;;;;;4922784;29;21037;-72
2021/06/18 11:15:31;;;;;;;3.42;1.90;;;12.00;99.90;;;;;;4926664;29;20040;-70
2021/06/18 11:18:19;;;;;;;4.30;1.80;;;12.00;99.90;;;;;;4930054;29;20024;-70
2021/06/18 11:20:52;;;;;;;3.60;2.00;;;12.10;99.90;;;;;;4928294;29;20383;-74
2021/06/18 11:23:22;;;;;;;3.60;2.05;;;12.00;99.90;;;;;;4924292;29;20023;-73
2021/06/18 11:25:50;;;;;;;4.45;2.65;;;11.80;99.90;;;;;;4926699;29;20043;-71
2021/06/18 11:28:21;;;;;;;4.55;2.38;;;11.70;99.90;;;;;;4922880;29;21020;-73
2021/06/18 11:31:17;;;;;;;3.05;2.15;;;11.70;99.90;;;;;;4927890;29;20054;-70
2021/06/18 11:33:56;;;;;;;2.78;2.13;;;11.70;99.90;;;;;;4928910;29;20023;-71
2021/06/18 11:36:24;;;;;;;3.20;1.55;;;11.70;99.90;;;;;;4927138;29;20976;-72
2021/06/18 11:38:59;;;;;;;4.10;1.40;;;11.80;99.90;;;;;;4925958;29;20040;-70
2021/06/18 11:41:32;;;;;;;2.77;1.57;;;11.70;99.90;;;;;;4926407;29;20479;-74
2021/06/18 11:44:02;;;;;;;1.95;1.45;;;11.70;99.90;;;;;;4922855;29;20385;-74
2021/06/18 11:46:31;;;;;;;4.25;1.50;;;11.70;99.90;;;;;;4910036;29;20110;-73
2021/06/18 11:49:20;;;;;;;4.15;1.92;;;11.80;99.90;;;;;;4910101;29;22446;-74
2021/06/18 11:51:49;;;;;;;3.85;2.88;;;11.90;99.90;;;;;;4922600;29;20028;-72
2021/06/18 11:54:31;;;;;;;6.07;3.65;;;12.00;99.90;;;;;;4923788;29;20055;-75
2021/06/18 11:57:07;;;;;;;3.47;2.28;;;11.90;99.90;;;;;;4921176;29;20449;-75
2021/06/18 11:59:37;;;;;;;6.18;2.55;;;11.90;99.90;;;;;;4921438;29;20022;-75
2021/06/18 12:02:14;;;;;;;3.33;1.65;;;11.90;99.90;;;;;;4924499;29;20083;-76
2021/06/18 12:04:42;;;;;;;4.25;1.80;;;11.90;99.90;;;;;;4927421;29;20028;-77
2021/06/18 12:07:09;;;;;;;4.93;2.40;;;11.90;99.90;;;;;;4922856;29;20032;-77
2021/06/18 12:09:43;;;;;;;4.10;2.70;;;11.90;99.90;;;;;;4927505;29;20032;-74
2021/06/18 12:12:11;;;;;;;4.63;2.35;;;11.80;99.90;;;;;;4924595;29;20046;-75
2021/06/18 12:14:44;;;;;;;5.35;3.50;;;11.90;99.90;;;;;;4927127;29;20043;-75
2021/06/18 12:17:12;;;;;;;6.25;3.47;;;11.90;99.90;;;;;;4928100;29;20027;-74
2021/06/18 12:19:49;;;;;;;8.15;3.45;;;11.90;99.90;;;;;;4932473;29;20035;-74
2021/06/18 12:22:28;;;;;;;7.20;4.32;;;11.90;99.90;;;;;;4924726;29;20030;-73
2021/06/18 12:24:57;;;;;;;6.30;3.65;;;12.00;99.90;;;;;;4906876;29;20770;-74
2021/06/18 12:27:31;;;;;;;2.67;1.83;;;12.00;99.90;;;;;;4926260;29;20459;-73
2021/06/18 12:30:08;;;;;;;1.92;1.00;;;11.90;99.90;;;;;;4922654;29;20031;-74
2021/06/18 12:32:37;;;;;;;0.95;0.60;;;12.00;99.90;;;;;;4922132;29;20075;-76
2021/06/18 12:35:07;;;;;;;2.03;0.55;;;12.00;99.90;;;;;;4931211;29;20526;-74
2021/06/18 12:37:37;;;;;;;0.52;0.30;;;12.10;99.90;;;;;;4927162;29;20089;-77
2021/06/18 12:40:19;;;;;;;0.50;0.35;;;12.20;99.60;;;;;;4928215;29;20042;-77
2021/06/18 12:42:51;;;;;;;0.47;0.25;;;12.20;98.90;;;;;;4924351;29;20023;-77
2021/06/18 12:45:19;;;;;;;0.20;0.10;;;12.20;98.80;;;;;;4924122;29;20039;-75
2021/06/18 12:47:49;;;;;;;0.00;0.00;;;12.30;97.90;;;;;;4925483;29;20176;-75
2021/06/18 12:50:25;;;;;;;0.10;0.10;;;12.50;97.10;;;;;;4923413;29;20483;-75
2021/06/18 12:53:07;;;;;;;1.42;0.63;;;12.60;96.90;;;;;;4925132;29;20032;-73
2021/06/18 12:55:41;;;;;;;0.77;0.40;;;12.60;96.70;;;;;;4930834;29;20031;-73
2021/06/18 12:58:15;;;;;;;0.38;0.13;;;12.70;96.30;;;;;;4924105;29;20042;-71
2021/06/18 13:00:49;;;;;;;2.17;1.10;;;12.60;96.50;;;;;;4923297;29;20044;-71
2021/06/18 13:03:37;;;;;;;2.20;0.80;;;12.60;96.30;;;;;;4924204;29;20160;-73
2021/06/18 13:06:07;;;;;;;4.20;1.25;;;12.60;96.10;;;;;;4927890;29;20029;-73
2021/06/18 13:08:45;;;;;;;3.15;1.35;;;12.60;96.10;;;;;;4927502;29;20043;-70